sensor_id;sensor_type;location;lat;lon;timestamp;P1;durP1;ratioP1;P2;durP2;ratioP2
28802;SDS011;15949;55.656;37.422;2022-07-10T00:05:03;14.68;;;10.55;;
28802;SDS011;15949;55.656;37.422;2022-07-10T00:10:09;13.93;;;11.38;;
28802;SDS011;15949;55.656;37.422;2022-07-10T00:15:15;11.75;;;7.05;;
28802;SDS011;15949;55.656;37.422;2022-07-10T00:20:21;12.23;;;10.05;;
28802;SDS011;15949;55.656;37.422;2022-07-10T00:25:27;12.73;;;9.43;;
28802;SDS011;15949;55.656;37.422;2022-07-10T00:30:33;13.52;;;10.20;;
28802;SDS011;15949;55.656;37.422;2022-07-10T00:35:39;13.48;;;10.32;;
28802;SDS011;15949;55.656;37.422;2022-07-10T00:40:45;15.10;;;11.43;;
28802;SDS011;15949;55.656;37.422;2022-07-10T00:45:51;13.60;;;10.30;;
28802;SDS011;15949;55.656;37.422;2022-07-10T00:50:56;15.52;;;11.90;;
28802;SDS011;15949;55.656;37.422;2022-07-10T00:56:02;15.02;;;13.43;;
28802;SDS011;15949;55.656;37.422;2022-07-10T01:01:08;18.75;;;13.35;;
28802;SDS011;15949;55.656;37.422;2022-07-10T01:06:14;20.05;;;12.65;;
28802;SDS011;15949;55.656;37.422;2022-07-10T01:11:21;17.70;;;15.52;;
28802;SDS011;15949;55.656;37.422;2022-07-10T01:16:27;11.82;;;9.00;;
28802;SDS011;15949;55.656;37.422;2022-07-10T01:21:33;15.55;;;12.05;;
28802;SDS011;15949;55.656;37.422;2022-07-10T01:26:40;13.90;;;11.50;;
28802;SDS011;15949;55.656;37.422;2022-07-10T01:31:48;13.60;;;12.00;;
28802;SDS011;15949;55.656;37.422;2022-07-10T01:36:53;13.18;;;10.43;;
28802;SDS011;15949;55.656;37.422;2022-07-10T01:41:59;14.50;;;12.93;;
28802;SDS011;15949;55.656;37.422;2022-07-10T01:47:05;17.63;;;11.27;;
28802;SDS011;15949;55.656;37.422;2022-07-10T01:52:11;16.92;;;13.02;;
28802;SDS011;15949;55.656;37.422;2022-07-10T01:57:17;15.40;;;12.93;;
28802;SDS011;15949;55.656;37.422;2022-07-10T02:02:23;16.90;;;14.40;;
28802;SDS011;15949;55.656;37.422;2022-07-10T02:07:29;12.75;;;10.25;;
28802;SDS011;15949;55.656;37.422;2022-07-10T02:12:34;14.23;;;10.95;;
28802;SDS011;15949;55.656;37.422;2022-07-10T02:17:40;12.80;;;10.18;;
28802;SDS011;15949;55.656;37.422;2022-07-10T02:22:46;12.25;;;10.40;;
28802;SDS011;15949;55.656;37.422;2022-07-10T02:27:51;16.00;;;14.18;;
28802;SDS011;15949;55.656;37.422;2022-07-10T02:32:57;14.32;;;12.85;;
28802;SDS011;15949;55.656;37.422;2022-07-10T02:38:03;17.05;;;11.85;;
28802;SDS011;15949;55.656;37.422;2022-07-10T02:43:08;10.88;;;9.02;;
28802;SDS011;15949;55.656;37.422;2022-07-10T02:48:14;10.80;;;8.40;;
28802;SDS011;15949;55.656;37.422;2022-07-10T02:53:21;12.68;;;11.25;;
28802;SDS011;15949;55.656;37.422;2022-07-10T02:58:26;14.85;;;12.35;;
28802;SDS011;15949;55.656;37.422;2022-07-10T03:03:32;16.08;;;14.45;;
28802;SDS011;15949;55.656;37.422;2022-07-10T03:08:38;14.75;;;13.00;;
28802;SDS011;15949;55.656;37.422;2022-07-10T03:13:44;14.48;;;12.98;;
28802;SDS011;15949;55.656;37.422;2022-07-10T03:18:49;17.50;;;14.23;;
28802;SDS011;15949;55.656;37.422;2022-07-10T03:23:55;15.23;;;13.57;;
28802;SDS011;15949;55.656;37.422;2022-07-10T03:29:01;14.35;;;12.23;;
28802;SDS011;15949;55.656;37.422;2022-07-10T03:34:07;15.15;;;12.38;;
28802;SDS011;15949;55.656;37.422;2022-07-10T03:39:12;12.05;;;10.20;;
28802;SDS011;15949;55.656;37.422;2022-07-10T03:44:18;14.70;;;11.07;;
28802;SDS011;15949;55.656;37.422;2022-07-10T03:49:24;16.77;;;10.55;;
28802;SDS011;15949;55.656;37.422;2022-07-10T03:54:29;15.15;;;10.93;;
28802;SDS011;15949;55.656;37.422;2022-07-10T03:59:36;13.57;;;8.15;;
28802;SDS011;15949;55.656;37.422;2022-07-10T04:04:41;12.20;;;8.30;;
28802;SDS011;15949;55.656;37.422;2022-07-10T04:09:47;11.18;;;6.40;;
28802;SDS011;15949;55.656;37.422;2022-07-10T04:14:53;7.30;;;5.75;;
28802;SDS011;15949;55.656;37.422;2022-07-10T04:19:59;7.97;;;6.05;;
28802;SDS011;15949;55.656;37.422;2022-07-10T04:25:05;10.45;;;7.38;;
28802;SDS011;15949;55.656;37.422;2022-07-10T04:30:11;10.90;;;8.02;;
28802;SDS011;15949;55.656;37.422;2022-07-10T04:35:17;10.32;;;7.97;;
28802;SDS011;15949;55.656;37.422;2022-07-10T04:40:22;11.93;;;9.77;;
28802;SDS011;15949;55.656;37.422;2022-07-10T04:45:28;14.32;;;9.48;;
28802;SDS011;15949;55.656;37.422;2022-07-10T04:50:34;14.07;;;9.43;;
28802;SDS011;15949;55.656;37.422;2022-07-10T04:55:39;13.45;;;8.88;;
28802;SDS011;15949;55.656;37.422;2022-07-10T05:00:45;15.20;;;9.25;;
28802;SDS011;15949;55.656;37.422;2022-07-10T05:05:51;13.45;;;8.82;;
28802;SDS011;15949;55.656;37.422;2022-07-10T05:10:56;16.15;;;8.60;;
28802;SDS011;15949;55.656;37.422;2022-07-10T05:16:03;17.13;;;9.43;;
28802;SDS011;15949;55.656;37.422;2022-07-10T05:21:09;16.05;;;10.18;;
28802;SDS011;15949;55.656;37.422;2022-07-10T05:26:15;13.45;;;8.98;;
28802;SDS011;15949;55.656;37.422;2022-07-10T05:31:21;22.17;;;10.48;;
28802;SDS011;15949;55.656;37.422;2022-07-10T05:36:27;19.55;;;9.70;;
28802;SDS011;15949;55.656;37.422;2022-07-10T05:41:33;19.45;;;9.55;;
28802;SDS011;15949;55.656;37.422;2022-07-10T05:46:38;23.27;;;11.93;;
28802;SDS011;15949;55.656;37.422;2022-07-10T05:51:44;20.50;;;9.80;;
28802;SDS011;15949;55.656;37.422;2022-07-10T05:56:50;16.05;;;9.57;;
28802;SDS011;15949;55.656;37.422;2022-07-10T06:01:56;15.43;;;8.73;;
28802;SDS011;15949;55.656;37.422;2022-07-10T06:07:02;18.50;;;9.05;;
28802;SDS011;15949;55.656;37.422;2022-07-10T06:12:08;12.77;;;8.43;;
28802;SDS011;15949;55.656;37.422;2022-07-10T06:17:14;15.88;;;8.70;;
28802;SDS011;15949;55.656;37.422;2022-07-10T06:22:19;12.20;;;7.72;;
28802;SDS011;15949;55.656;37.422;2022-07-10T06:27:38;11.67;;;7.70;;
28802;SDS011;15949;55.656;37.422;2022-07-10T06:32:43;17.20;;;9.07;;
28802;SDS011;15949;55.656;37.422;2022-07-10T06:37:49;18.13;;;8.65;;
28802;SDS011;15949;55.656;37.422;2022-07-10T06:42:56;17.00;;;8.43;;
28802;SDS011;15949;55.656;37.422;2022-07-10T06:48:02;15.82;;;8.05;;
28802;SDS011;15949;55.656;37.422;2022-07-10T06:53:08;14.20;;;8.60;;
28802;SDS011;15949;55.656;37.422;2022-07-10T06:58:14;15.52;;;9.00;;
28802;SDS011;15949;55.656;37.422;2022-07-10T07:03:20;15.10;;;8.93;;
28802;SDS011;15949;55.656;37.422;2022-07-10T07:08:26;16.83;;;10.70;;
28802;SDS011;15949;55.656;37.422;2022-07-10T07:18:40;12.03;;;8.27;;
28802;SDS011;15949;55.656;37.422;2022-07-10T07:23:52;10.43;;;7.72;;
28802;SDS011;15949;55.656;37.422;2022-07-10T07:28:58;12.55;;;7.85;;
28802;SDS011;15949;55.656;37.422;2022-07-10T07:34:03;12.32;;;8.10;;
28802;SDS011;15949;55.656;37.422;2022-07-10T07:39:09;14.15;;;8.77;;
28802;SDS011;15949;55.656;37.422;2022-07-10T07:44:14;12.98;;;9.52;;
28802;SDS011;15949;55.656;37.422;2022-07-10T07:49:22;16.57;;;10.27;;
28802;SDS011;15949;55.656;37.422;2022-07-10T07:54:28;17.95;;;9.27;;
28802;SDS011;15949;55.656;37.422;2022-07-10T07:59:34;14.75;;;9.52;;
28802;SDS011;15949;55.656;37.422;2022-07-10T08:04:40;18.35;;;12.45;;
28802;SDS011;15949;55.656;37.422;2022-07-10T08:09:45;31.75;;;23.92;;
28802;SDS011;15949;55.656;37.422;2022-07-10T08:14:51;16.70;;;10.82;;
28802;SDS011;15949;55.656;37.422;2022-07-10T08:19:56;13.65;;;10.32;;
28802;SDS011;15949;55.656;37.422;2022-07-10T08:25:02;16.80;;;10.80;;
28802;SDS011;15949;55.656;37.422;2022-07-10T08:30:08;11.32;;;9.60;;
28802;SDS011;15949;55.656;37.422;2022-07-10T08:35:14;14.23;;;9.48;;
28802;SDS011;15949;55.656;37.422;2022-07-10T08:40:20;15.35;;;9.48;;
28802;SDS011;15949;55.656;37.422;2022-07-10T08:45:27;32.75;;;29.08;;
28802;SDS011;15949;55.656;37.422;2022-07-10T08:50:42;13.00;;;9.23;;
28802;SDS011;15949;55.656;37.422;2022-07-10T08:55:50;13.15;;;8.02;;
28802;SDS011;15949;55.656;37.422;2022-07-10T09:00:56;10.38;;;6.40;;
28802;SDS011;15949;55.656;37.422;2022-07-10T09:06:01;9.05;;;5.20;;
28802;SDS011;15949;55.656;37.422;2022-07-10T09:21:27;7.72;;;5.20;;
28802;SDS011;15949;55.656;37.422;2022-07-10T09:26:38;14.02;;;5.50;;
28802;SDS011;15949;55.656;37.422;2022-07-10T09:31:53;14.50;;;5.20;;
28802;SDS011;15949;55.656;37.422;2022-07-10T09:37:00;12.18;;;4.97;;
28802;SDS011;15949;55.656;37.422;2022-07-10T09:42:28;8.18;;;5.03;;
28802;SDS011;15949;55.656;37.422;2022-07-10T09:53:22;7.30;;;3.22;;
28802;SDS011;15949;55.656;37.422;2022-07-10T09:58:29;8.32;;;4.32;;
28802;SDS011;15949;55.656;37.422;2022-07-10T10:03:38;10.30;;;4.20;;
28802;SDS011;15949;55.656;37.422;2022-07-10T10:13:54;10.25;;;6.22;;
28802;SDS011;15949;55.656;37.422;2022-07-10T10:19:01;11.85;;;5.68;;
28802;SDS011;15949;55.656;37.422;2022-07-10T10:24:25;7.57;;;3.42;;
28802;SDS011;15949;55.656;37.422;2022-07-10T10:29:31;9.43;;;3.53;;
28802;SDS011;15949;55.656;37.422;2022-07-10T10:34:38;6.88;;;3.90;;
28802;SDS011;15949;55.656;37.422;2022-07-10T10:39:53;6.45;;;3.42;;
28802;SDS011;15949;55.656;37.422;2022-07-10T10:50:47;4.77;;;3.40;;
28802;SDS011;15949;55.656;37.422;2022-07-10T11:06:40;6.97;;;3.70;;
28802;SDS011;15949;55.656;37.422;2022-07-10T11:17:13;5.28;;;3.08;;
28802;SDS011;15949;55.656;37.422;2022-07-10T11:33:03;6.78;;;2.72;;
28802;SDS011;15949;55.656;37.422;2022-07-10T11:38:11;6.78;;;2.95;;
28802;SDS011;15949;55.656;37.422;2022-07-10T11:43:16;6.47;;;2.97;;
28802;SDS011;15949;55.656;37.422;2022-07-10T11:48:22;3.53;;;2.50;;
28802;SDS011;15949;55.656;37.422;2022-07-10T11:53:28;10.18;;;3.15;;
28802;SDS011;15949;55.656;37.422;2022-07-10T11:58:34;9.27;;;2.65;;
28802;SDS011;15949;55.656;37.422;2022-07-10T12:03:39;8.60;;;2.80;;
28802;SDS011;15949;55.656;37.422;2022-07-10T12:08:45;6.65;;;2.75;;
28802;SDS011;15949;55.656;37.422;2022-07-10T12:13:51;8.38;;;3.10;;
28802;SDS011;15949;55.656;37.422;2022-07-10T12:24:04;11.50;;;4.40;;
28802;SDS011;15949;55.656;37.422;2022-07-10T12:29:11;8.68;;;3.67;;
28802;SDS011;15949;55.656;37.422;2022-07-10T12:34:35;6.47;;;3.25;;
28802;SDS011;15949;55.656;37.422;2022-07-10T12:39:48;8.02;;;2.85;;
28802;SDS011;15949;55.656;37.422;2022-07-10T12:45:11;10.25;;;4.55;;
28802;SDS011;15949;55.656;37.422;2022-07-10T12:50:20;5.35;;;3.58;;
28802;SDS011;15949;55.656;37.422;2022-07-10T12:55:33;9.00;;;6.00;;
28802;SDS011;15949;55.656;37.422;2022-07-10T13:00:43;6.70;;;3.17;;
28802;SDS011;15949;55.656;37.422;2022-07-10T13:05:50;9.73;;;3.42;;
28802;SDS011;15949;55.656;37.422;2022-07-10T13:10:57;8.40;;;4.53;;
28802;SDS011;15949;55.656;37.422;2022-07-10T13:16:06;12.43;;;5.88;;
28802;SDS011;15949;55.656;37.422;2022-07-10T13:21:14;16.13;;;7.20;;
28802;SDS011;15949;55.656;37.422;2022-07-10T13:26:19;13.68;;;3.85;;
28802;SDS011;15949;55.656;37.422;2022-07-10T13:31:25;7.88;;;2.97;;
28802;SDS011;15949;55.656;37.422;2022-07-10T13:36:31;12.07;;;3.08;;
28802;SDS011;15949;55.656;37.422;2022-07-10T13:41:37;6.93;;;2.70;;
28802;SDS011;15949;55.656;37.422;2022-07-10T13:46:43;7.13;;;3.58;;
28802;SDS011;15949;55.656;37.422;2022-07-10T13:51:48;8.25;;;3.95;;
28802;SDS011;15949;55.656;37.422;2022-07-10T13:56:54;35.95;;;23.25;;
28802;SDS011;15949;55.656;37.422;2022-07-10T14:02:00;16.98;;;8.32;;
28802;SDS011;15949;55.656;37.422;2022-07-10T14:07:05;12.20;;;5.57;;
28802;SDS011;15949;55.656;37.422;2022-07-10T14:12:11;14.35;;;6.03;;
28802;SDS011;15949;55.656;37.422;2022-07-10T14:17:17;13.10;;;4.70;;
28802;SDS011;15949;55.656;37.422;2022-07-10T14:22:22;9.50;;;3.95;;
28802;SDS011;15949;55.656;37.422;2022-07-10T14:27:29;27.50;;;4.20;;
28802;SDS011;15949;55.656;37.422;2022-07-10T14:32:36;20.00;;;6.43;;
28802;SDS011;15949;55.656;37.422;2022-07-10T14:37:42;17.80;;;9.25;;
28802;SDS011;15949;55.656;37.422;2022-07-10T14:42:48;16.25;;;8.80;;
28802;SDS011;15949;55.656;37.422;2022-07-10T14:47:53;17.30;;;7.93;;
28802;SDS011;15949;55.656;37.422;2022-07-10T14:53:01;24.55;;;13.55;;
28802;SDS011;15949;55.656;37.422;2022-07-10T14:58:06;18.23;;;7.40;;
28802;SDS011;15949;55.656;37.422;2022-07-10T15:03:12;30.40;;;16.27;;
28802;SDS011;15949;55.656;37.422;2022-07-10T15:08:21;15.82;;;6.97;;
28802;SDS011;15949;55.656;37.422;2022-07-10T15:13:27;18.05;;;7.70;;
28802;SDS011;15949;55.656;37.422;2022-07-10T15:18:33;16.60;;;7.78;;
28802;SDS011;15949;55.656;37.422;2022-07-10T15:23:39;13.15;;;7.57;;
28802;SDS011;15949;55.656;37.422;2022-07-10T15:28:44;11.23;;;5.80;;
28802;SDS011;15949;55.656;37.422;2022-07-10T15:33:50;15.40;;;5.85;;
28802;SDS011;15949;55.656;37.422;2022-07-10T15:38:56;22.98;;;10.65;;
28802;SDS011;15949;55.656;37.422;2022-07-10T15:44:01;18.38;;;11.05;;
28802;SDS011;15949;55.656;37.422;2022-07-10T15:49:08;11.98;;;5.72;;
28802;SDS011;15949;55.656;37.422;2022-07-10T15:54:16;17.77;;;6.80;;
28802;SDS011;15949;55.656;37.422;2022-07-10T15:59:23;19.35;;;7.75;;
28802;SDS011;15949;55.656;37.422;2022-07-10T16:04:29;18.35;;;8.68;;
28802;SDS011;15949;55.656;37.422;2022-07-10T16:09:34;15.38;;;9.60;;
28802;SDS011;15949;55.656;37.422;2022-07-10T16:14:40;21.52;;;9.18;;
28802;SDS011;15949;55.656;37.422;2022-07-10T16:19:46;18.50;;;8.13;;
28802;SDS011;15949;55.656;37.422;2022-07-10T16:24:51;16.08;;;9.15;;
28802;SDS011;15949;55.656;37.422;2022-07-10T16:30:16;19.48;;;8.77;;
28802;SDS011;15949;55.656;37.422;2022-07-10T16:35:21;17.00;;;8.80;;
28802;SDS011;15949;55.656;37.422;2022-07-10T16:40:27;21.25;;;9.63;;
28802;SDS011;15949;55.656;37.422;2022-07-10T16:45:33;17.75;;;8.45;;
28802;SDS011;15949;55.656;37.422;2022-07-10T16:50:39;18.60;;;8.98;;
28802;SDS011;15949;55.656;37.422;2022-07-10T16:55:45;11.52;;;8.45;;
28802;SDS011;15949;55.656;37.422;2022-07-10T17:00:50;10.20;;;6.22;;
28802;SDS011;15949;55.656;37.422;2022-07-10T17:05:56;11.07;;;7.15;;
28802;SDS011;15949;55.656;37.422;2022-07-10T17:11:02;13.18;;;6.35;;
28802;SDS011;15949;55.656;37.422;2022-07-10T17:16:07;16.88;;;9.63;;
28802;SDS011;15949;55.656;37.422;2022-07-10T17:21:13;20.88;;;10.48;;
28802;SDS011;15949;55.656;37.422;2022-07-10T17:26:24;17.00;;;9.98;;
28802;SDS011;15949;55.656;37.422;2022-07-10T17:31:29;16.42;;;8.77;;
28802;SDS011;15949;55.656;37.422;2022-07-10T17:36:35;19.90;;;9.65;;
28802;SDS011;15949;55.656;37.422;2022-07-10T17:41:40;15.75;;;9.30;;
28802;SDS011;15949;55.656;37.422;2022-07-10T17:46:46;19.88;;;10.43;;
28802;SDS011;15949;55.656;37.422;2022-07-10T17:51:52;20.65;;;12.38;;
28802;SDS011;15949;55.656;37.422;2022-07-10T17:56:58;14.38;;;9.95;;
28802;SDS011;15949;55.656;37.422;2022-07-10T18:02:04;23.63;;;10.65;;
28802;SDS011;15949;55.656;37.422;2022-07-10T18:07:11;22.45;;;10.35;;
28802;SDS011;15949;55.656;37.422;2022-07-10T18:12:16;18.92;;;10.68;;
28802;SDS011;15949;55.656;37.422;2022-07-10T18:17:22;22.30;;;13.35;;
28802;SDS011;15949;55.656;37.422;2022-07-10T18:22:28;19.00;;;12.18;;
28802;SDS011;15949;55.656;37.422;2022-07-10T18:27:33;15.13;;;10.68;;
28802;SDS011;15949;55.656;37.422;2022-07-10T18:32:39;25.58;;;13.23;;
28802;SDS011;15949;55.656;37.422;2022-07-10T18:38:03;15.57;;;9.80;;
28802;SDS011;15949;55.656;37.422;2022-07-10T18:43:08;17.05;;;11.88;;
28802;SDS011;15949;55.656;37.422;2022-07-10T18:48:14;19.58;;;9.65;;
28802;SDS011;15949;55.656;37.422;2022-07-10T18:53:19;15.30;;;9.65;;
28802;SDS011;15949;55.656;37.422;2022-07-10T18:58:25;14.68;;;10.05;;
28802;SDS011;15949;55.656;37.422;2022-07-10T19:03:31;16.85;;;8.43;;
28802;SDS011;15949;55.656;37.422;2022-07-10T19:08:37;17.70;;;11.55;;
28802;SDS011;15949;55.656;37.422;2022-07-10T19:13:42;20.35;;;12.35;;
28802;SDS011;15949;55.656;37.422;2022-07-10T19:18:48;14.15;;;10.68;;
28802;SDS011;15949;55.656;37.422;2022-07-10T19:23:53;16.77;;;10.30;;
28802;SDS011;15949;55.656;37.422;2022-07-10T19:28:59;15.07;;;11.07;;
28802;SDS011;15949;55.656;37.422;2022-07-10T19:34:06;17.65;;;12.02;;
28802;SDS011;15949;55.656;37.422;2022-07-10T19:39:11;15.88;;;9.68;;
28802;SDS011;15949;55.656;37.422;2022-07-10T19:44:17;11.05;;;7.05;;
28802;SDS011;15949;55.656;37.422;2022-07-10T19:49:22;9.60;;;6.95;;
28802;SDS011;15949;55.656;37.422;2022-07-10T19:54:29;10.52;;;6.15;;
28802;SDS011;15949;55.656;37.422;2022-07-10T19:59:35;11.60;;;7.97;;
28802;SDS011;15949;55.656;37.422;2022-07-10T20:04:41;12.52;;;8.38;;
28802;SDS011;15949;55.656;37.422;2022-07-10T20:09:46;18.42;;;12.98;;
28802;SDS011;15949;55.656;37.422;2022-07-10T20:14:52;16.10;;;11.10;;
28802;SDS011;15949;55.656;37.422;2022-07-10T20:19:57;17.75;;;11.80;;
28802;SDS011;15949;55.656;37.422;2022-07-10T20:25:04;21.85;;;14.15;;
28802;SDS011;15949;55.656;37.422;2022-07-10T20:30:10;23.08;;;14.02;;
28802;SDS011;15949;55.656;37.422;2022-07-10T20:35:16;18.45;;;13.52;;
28802;SDS011;15949;55.656;37.422;2022-07-10T20:40:22;20.33;;;13.40;;
28802;SDS011;15949;55.656;37.422;2022-07-10T20:45:28;14.70;;;12.30;;
28802;SDS011;15949;55.656;37.422;2022-07-10T20:50:34;18.05;;;12.85;;
28802;SDS011;15949;55.656;37.422;2022-07-10T20:55:39;20.85;;;15.05;;
28802;SDS011;15949;55.656;37.422;2022-07-10T21:00:45;24.67;;;17.83;;
28802;SDS011;15949;55.656;37.422;2022-07-10T21:05:51;20.08;;;15.18;;
28802;SDS011;15949;55.656;37.422;2022-07-10T21:10:56;21.55;;;16.88;;
28802;SDS011;15949;55.656;37.422;2022-07-10T21:16:02;18.63;;;14.55;;
28802;SDS011;15949;55.656;37.422;2022-07-10T21:21:07;26.52;;;15.70;;
28802;SDS011;15949;55.656;37.422;2022-07-10T21:26:13;19.08;;;15.50;;
28802;SDS011;15949;55.656;37.422;2022-07-10T21:31:19;22.17;;;13.20;;
28802;SDS011;15949;55.656;37.422;2022-07-10T21:36:25;26.55;;;14.27;;
28802;SDS011;15949;55.656;37.422;2022-07-10T21:41:31;37.17;;;18.27;;
28802;SDS011;15949;55.656;37.422;2022-07-10T21:46:36;17.17;;;13.88;;
28802;SDS011;15949;55.656;37.422;2022-07-10T21:51:42;26.65;;;18.70;;
28802;SDS011;15949;55.656;37.422;2022-07-10T21:56:48;25.27;;;19.73;;
28802;SDS011;15949;55.656;37.422;2022-07-10T22:01:53;24.45;;;19.73;;
28802;SDS011;15949;55.656;37.422;2022-07-10T22:06:59;21.63;;;17.05;;
28802;SDS011;15949;55.656;37.422;2022-07-10T22:12:05;22.38;;;18.52;;
28802;SDS011;15949;55.656;37.422;2022-07-10T22:17:10;23.85;;;17.73;;
28802;SDS011;15949;55.656;37.422;2022-07-10T22:22:16;23.92;;;19.35;;
28802;SDS011;15949;55.656;37.422;2022-07-10T22:27:22;30.20;;;19.30;;
28802;SDS011;15949;55.656;37.422;2022-07-10T22:32:27;23.00;;;16.75;;
28802;SDS011;15949;55.656;37.422;2022-07-10T22:37:33;30.05;;;18.42;;
28802;SDS011;15949;55.656;37.422;2022-07-10T22:42:38;27.08;;;17.90;;
28802;SDS011;15949;55.656;37.422;2022-07-10T22:47:44;21.95;;;17.92;;
28802;SDS011;15949;55.656;37.422;2022-07-10T22:52:49;22.67;;;16.67;;
28802;SDS011;15949;55.656;37.422;2022-07-10T22:57:55;27.83;;;18.48;;
28802;SDS011;15949;55.656;37.422;2022-07-10T23:03:01;22.90;;;17.50;;
28802;SDS011;15949;55.656;37.422;2022-07-10T23:08:07;25.90;;;17.50;;
28802;SDS011;15949;55.656;37.422;2022-07-10T23:13:13;27.05;;;19.45;;
28802;SDS011;15949;55.656;37.422;2022-07-10T23:18:19;23.15;;;18.77;;
28802;SDS011;15949;55.656;37.422;2022-07-10T23:23:24;20.17;;;16.77;;
28802;SDS011;15949;55.656;37.422;2022-07-10T23:28:30;20.77;;;16.30;;
28802;SDS011;15949;55.656;37.422;2022-07-10T23:33:36;22.02;;;15.90;;
28802;SDS011;15949;55.656;37.422;2022-07-10T23:38:41;24.17;;;14.63;;
28802;SDS011;15949;55.656;37.422;2022-07-10T23:43:47;22.17;;;17.35;;
28802;SDS011;15949;55.656;37.422;2022-07-10T23:48:52;21.40;;;15.52;;
28802;SDS011;15949;55.656;37.422;2022-07-10T23:54:16;14.80;;;10.00;;
28802;SDS011;15949;55.656;37.422;2022-07-10T23:59:22;13.50;;;8.48;;
